Relevés horaires St-Hubert (Belgique)


Relevés horaires à St-Hubert - Lundi 06 Juill. 2020
Heure UTC1 Température [°C] Vent [km/h] Hum. [%] Pres.4 [hPa] Visi. [Km] Nébu. [octa] Préc.5 [mm] Cond.
2m. Res. Ros. Dir.2 Vit. Moy. Raf.3
23:00 9.3 8.8 5.9 NO 5.6 5.6 9.3 79 1023.9(0.6/3h) 40 0/8 -- --
22:00 9.7 9.2 5.3 NO 5.6 5.6 9.3 74 1023.9(1.1/3h) 45 5/8 -- --
21:00 10.2 10.2 5.2 NO 3.7 9.3 14.8 71 1023.6(1.4/3h) 40 0/8 -- --
20:00 11.3 11.1 5.2 NO 5.6 7.4 11.1 66 1022.8(1.5/3h) 40 4/8 -- --
19:00 13.2 12.9 5.5 NO 7.4 9.3 14.8 60 1021.9(1.4/3h) 40 7/8 -- --
18:00 13.8 13.6 5.0 NO 7.4 13.0 22.2 55 1021.2(1.4/3h) 35 4/8 0/12h
--
17:00 15.1 14.6 5.2 O 11.1 13.0 22.2 52 1020.4(1.2/3h) 35 5/8 -- --
16:00 15.6 15.2 5.6 O 11.1 11.1 18.5 51 1019.8(1.1/3h) 27 6/8 -- --
15:00 14.9 14.6 4.8 O 9.3 13.0 18.5 51 1019.5(1.0/3h) 35 6/8 -- --
14:00 15.0 14.5 5.3 ONO 11.1 11.1 18.5 52 1019.2(0.8/3h) 30 4/8 -- --
13:00 13.6 13.3 6.4 O 7.4 9.3 18.5 62 1019.1(0.9/3h) 30 7/8 -- --
12:00 15.1 15.1 8.7 O 7.4 11.1 18.5 66 1018.3(0.9/3h) 21 6/8 0/6h
--
11:00 12.8 12.1 6.3 O 9.3 9.3 18.5 65 1018.8(1.2/3h) 30 8/8 -- --
10:00 11.7 11.1 5.5 O 7.4 9.3 16.7 66 1018.5(1.1/3h) 26 8/8 -- --
09:00 12.1 11.2 6.8 O 9.3 11.1 18.5 70 1018.1(1.2/3h) 22 8/8 -- --
08:00 10.9 9.8 6.3 O 9.3 11.1 18.5 73 1017.9(1.3/3h) 17 5/8 -- --
07:00 10.0 8.8 7.2 O 9.3 9.3 16.7 83 1017.7(1.1/3h) 13 7/8 -- --
06:00 9.3 8.3 7.1 O 7.4 11.1 18.5 86 1017.4(0.8/3h) 13 8/8 0/12h
--
05:00 8.9 7.4 7.1 O 9.3 9.3 14.8 88 1017.1(0.3/3h) 12 8/8 -- --
04:00 8.8 7.7 7.2 O 7.4 7.4 14.8 90 1016.8(-0.1/3h) 12 8/8 -- --
03:00 8.5 7.9 6.8 O 5.6 11.1 18.5 89 1016.7(-0.2/3h) 15 7/8 -- --
02:00 9.0 8 6.8 O 7.4 11.1 18.5 86 1016.7(0.2/3h) 16 7/8 -- --
01:00 9.2 7.8 6.5 O 9.3 9.3 18.5 83 1016.9(0.8/3h) 20 0/8 -- --
00:00 10.3 9.1 7.3 O 9.3 11.1 20.4 82 1016.6(0.8/3h) 24 2/8 0/6h
0/24h
--

1 Coordinated Universal Time. Actuellement il est 04:00 locale et 02:00 UTC.

2 Le vent souffle depuis la direction indiquée vers la direction oposée.

3 Les rafales max. sont disponible 40 min après l'heure du relevé.

4 Pour les stations d'altitude (plus de 600m) le géopotentiel du niveau le plus proche de la pression obligatoire est indiqué.

5 Les stations disposant d'un diffuseur peuvent indiquer "trace". Cela signifie que des précipitations ont touchés le sol mais que la quantité est inférieure à 0.1 mm.

Récapitulatif de la journée
Température [°C] Vent [km/h] Ensoleillement4 [h] Precipitations totale5 [mm] Pression [Hpa]
Min1 Max.2 Moy.3 Max. Min Max.
8.3 16.5 10 22.2 0 h 0 min 0 1016.6 1023.9

1 Température minimale relevée entre 18:00 UTC la veille et 18:00 UTC le jour donné.

2 Température maximale relevée entre 06:00 UTC le jour donné et 06:00 UTC le lendemain.

3 Vent moyen de la journée basé sur les relevés horaires.

4 Ensoleillement en heures relevé entre 06:00 UTC la veille et 06:00 UTC le jour donné.

5 Précipitations totales tombées entre 06:00 UTC la jour donné et 06:00 UTC le lendemain.

Graphiques horaires